sensor_id;sensor_type;location;lat;lon;timestamp;pressure;altitude;pressure_sealevel;temperature;humidity
77205;BME280;66188;46.626;18.866;2023-01-23T00:01:08;101017.59;;;13.63;45.52
77205;BME280;66188;46.626;18.866;2023-01-23T00:03:34;101028.31;;;13.63;45.29
77205;BME280;66188;46.626;18.866;2023-01-23T00:06:05;101036.47;;;13.71;45.34
77205;BME280;66188;46.626;18.866;2023-01-23T00:08:31;101033.78;;;13.71;45.53
77205;BME280;66188;46.626;18.866;2023-01-23T00:10:57;101032.09;;;13.70;45.92
77205;BME280;66188;46.626;18.866;2023-01-23T00:13:23;101033.94;;;13.70;45.73
77205;BME280;66188;46.626;18.866;2023-01-23T00:15:51;100993.13;;;13.49;45.58
77205;BME280;66188;46.626;18.866;2023-01-23T00:18:17;101025.34;;;13.66;45.95
77205;BME280;66188;46.626;18.866;2023-01-23T00:20:42;101016.66;;;13.55;46.32
77205;BME280;66188;46.626;18.866;2023-01-23T00:23:09;101030.97;;;13.63;45.85
77205;BME280;66188;46.626;18.866;2023-01-23T00:25:38;101043.09;;;13.67;45.28
77205;BME280;66188;46.626;18.866;2023-01-23T00:28:04;101033.66;;;13.63;45.77
77205;BME280;66188;46.626;18.866;2023-01-23T00:30:29;101043.09;;;13.67;46.15
77205;BME280;66188;46.626;18.866;2023-01-23T00:32:55;101035.34;;;13.64;45.71
77205;BME280;66188;46.626;18.866;2023-01-23T00:35:21;101016.75;;;13.63;45.55
77205;BME280;66188;46.626;18.866;2023-01-23T00:37:52;101014.81;;;13.65;45.33
77205;BME280;66188;46.626;18.866;2023-01-23T00:40:18;101026.47;;;13.64;45.26
77205;BME280;66188;46.626;18.866;2023-01-23T00:42:49;101021.97;;;13.64;46.56
77205;BME280;66188;46.626;18.866;2023-01-23T00:45:15;101020.28;;;13.63;45.59
77205;BME280;66188;46.626;18.866;2023-01-23T00:47:40;101009.75;;;13.62;46.42
77205;BME280;66188;46.626;18.866;2023-01-23T00:50:06;100996.22;;;13.54;46.13
77205;BME280;66188;46.626;18.866;2023-01-23T00:52:32;100996.66;;;13.59;45.80
77205;BME280;66188;46.626;18.866;2023-01-23T00:54:58;100994.81;;;13.59;46.08
77205;BME280;66188;46.626;18.866;2023-01-23T00:57:26;100993.13;;;13.58;45.33
77205;BME280;66188;46.626;18.866;2023-01-23T00:59:52;100983.00;;;13.52;45.85
77205;BME280;66188;46.626;18.866;2023-01-23T01:02:21;101001.03;;;13.60;45.68
77205;BME280;66188;46.626;18.866;2023-01-23T01:04:46;100998.34;;;13.60;46.07
77205;BME280;66188;46.626;18.866;2023-01-23T01:07:12;100996.81;;;13.57;45.82
77205;BME280;66188;46.626;18.866;2023-01-23T01:09:40;100987.63;;;13.50;46.09
77205;BME280;66188;46.626;18.866;2023-01-23T01:12:06;101007.34;;;13.59;45.13
77205;BME280;66188;46.626;18.866;2023-01-23T01:14:32;100995.94;;;13.57;45.15
77205;BME280;66188;46.626;18.866;2023-01-23T01:16:57;100995.53;;;13.52;45.69
77205;BME280;66188;46.626;18.866;2023-01-23T01:19:23;100997.19;;;13.53;46.02
77205;BME280;66188;46.626;18.866;2023-01-23T01:21:48;101004.09;;;13.55;45.66
77205;BME280;66188;46.626;18.866;2023-01-23T01:24:14;101002.28;;;13.56;46.09
77205;BME280;66188;46.626;18.866;2023-01-23T01:26:39;101005.94;;;13.55;45.49
77205;BME280;66188;46.626;18.866;2023-01-23T01:29:08;101010.56;;;13.53;45.17
77205;BME280;66188;46.626;18.866;2023-01-23T01:31:37;101013.97;;;13.55;45.60
77205;BME280;66188;46.626;18.866;2023-01-23T01:34:02;100990.75;;;13.46;45.21
77205;BME280;66188;46.626;18.866;2023-01-23T01:36:28;100981.88;;;13.45;45.54
77205;BME280;66188;46.626;18.866;2023-01-23T01:38:53;100998.22;;;13.52;45.55
77205;BME280;66188;46.626;18.866;2023-01-23T01:41:19;100998.22;;;13.52;45.69
77205;BME280;66188;46.626;18.866;2023-01-23T01:43:45;101005.53;;;13.50;45.48
77205;BME280;66188;46.626;18.866;2023-01-23T01:46:23;101005.66;;;13.48;45.38
77205;BME280;66188;46.626;18.866;2023-01-23T01:49:03;101014.38;;;13.50;45.17
77205;BME280;66188;46.626;18.866;2023-01-23T01:51:37;101017.19;;;13.49;45.81
77205;BME280;66188;46.626;18.866;2023-01-23T01:54:06;101004.25;;;13.44;45.26
77205;BME280;66188;46.626;18.866;2023-01-23T01:56:38;101009.03;;;13.50;45.03
77205;BME280;66188;46.626;18.866;2023-01-23T01:59:05;101006.66;;;13.47;45.50
77205;BME280;66188;46.626;18.866;2023-01-23T02:01:31;101002.97;;;13.48;45.79
77205;BME280;66188;46.626;18.866;2023-01-23T02:03:57;100991.75;;;13.45;45.56
77205;BME280;66188;46.626;18.866;2023-01-23T02:06:24;100990.59;;;13.38;45.66
77205;BME280;66188;46.626;18.866;2023-01-23T02:08:59;101001.31;;;13.47;45.54
77205;BME280;66188;46.626;18.866;2023-01-23T02:11:26;101007.63;;;13.46;44.93
77205;BME280;66188;46.626;18.866;2023-01-23T02:13:52;100999.78;;;13.45;45.40
77205;BME280;66188;46.626;18.866;2023-01-23T02:16:23;100986.53;;;13.43;45.70
77205;BME280;66188;46.626;18.866;2023-01-23T02:18:51;100984.56;;;13.36;45.85
77205;BME280;66188;46.626;18.866;2023-01-23T02:21:21;100989.06;;;13.45;44.93
77205;BME280;66188;46.626;18.866;2023-01-23T02:26:19;100994.53;;;13.43;45.59
77205;BME280;66188;46.626;18.866;2023-01-23T02:28:49;100988.50;;;13.41;45.80
77205;BME280;66188;46.626;18.866;2023-01-23T02:31:16;100984.13;;;13.40;45.56
77205;BME280;66188;46.626;18.866;2023-01-23T02:33:48;100993.84;;;13.41;45.67
77205;BME280;66188;46.626;18.866;2023-01-23T02:36:19;100994.69;;;13.42;45.58
77205;BME280;66188;46.626;18.866;2023-01-23T02:38:53;100985.81;;;13.41;45.35
77205;BME280;66188;46.626;18.866;2023-01-23T02:41:30;100979.38;;;13.34;44.99
77205;BME280;66188;46.626;18.866;2023-01-23T02:44:01;100984.13;;;13.40;45.76
77205;BME280;66188;46.626;18.866;2023-01-23T02:46:27;100988.66;;;13.40;45.71
77205;BME280;66188;46.626;18.866;2023-01-23T02:48:53;100981.44;;;13.40;45.44
77205;BME280;66188;46.626;18.866;2023-01-23T02:51:19;100972.63;;;13.40;45.27
77205;BME280;66188;46.626;18.866;2023-01-23T02:53:46;100953.75;;;13.32;45.40
77205;BME280;66188;46.626;18.866;2023-01-23T02:56:12;100967.38;;;13.38;45.29
77205;BME280;66188;46.626;18.866;2023-01-23T02:58:38;100956.00;;;13.36;45.57
77205;BME280;66188;46.626;18.866;2023-01-23T03:01:27;100964.88;;;13.37;45.06
77205;BME280;66188;46.626;18.866;2023-01-23T03:03:53;100957.81;;;13.36;44.81
77205;BME280;66188;46.626;18.866;2023-01-23T03:06:21;100970.22;;;13.37;45.62
77205;BME280;66188;46.626;18.866;2023-01-23T03:08:50;100973.75;;;13.37;45.36
77205;BME280;66188;46.626;18.866;2023-01-23T03:11:17;100971.19;;;13.36;45.31
77205;BME280;66188;46.626;18.866;2023-01-23T03:13:44;100962.06;;;13.28;45.62
77205;BME280;66188;46.626;18.866;2023-01-23T03:16:10;100976.53;;;13.36;45.62
77205;BME280;66188;46.626;18.866;2023-01-23T03:18:36;100973.88;;;13.36;44.59
77205;BME280;66188;46.626;18.866;2023-01-23T03:21:06;100977.53;;;13.35;44.98
77205;BME280;66188;46.626;18.866;2023-01-23T03:23:32;100997.22;;;13.34;45.49
77205;BME280;66188;46.626;18.866;2023-01-23T03:25:57;100995.53;;;13.32;45.09
77205;BME280;66188;46.626;18.866;2023-01-23T03:28:24;100979.91;;;13.28;45.34
77205;BME280;66188;46.626;18.866;2023-01-23T03:31:09;100998.34;;;13.31;45.32
77205;BME280;66188;46.626;18.866;2023-01-23T03:33:35;101000.34;;;13.29;45.85
77205;BME280;66188;46.626;18.866;2023-01-23T03:36:04;101002.56;;;13.34;45.50
77205;BME280;66188;46.626;18.866;2023-01-23T03:38:32;101000.88;;;13.32;45.96
77205;BME280;66188;46.626;18.866;2023-01-23T03:40:57;100996.53;;;13.32;45.10
77205;BME280;66188;46.626;18.866;2023-01-23T03:43:44;100987.50;;;13.32;45.49
77205;BME280;66188;46.626;18.866;2023-01-23T03:46:10;100982.47;;;13.29;44.63
77205;BME280;66188;46.626;18.866;2023-01-23T03:48:35;100974.44;;;13.29;45.83
77205;BME280;66188;46.626;18.866;2023-01-23T03:51:01;100978.78;;;13.30;45.87
77205;BME280;66188;46.626;18.866;2023-01-23T03:53:26;100976.13;;;13.30;45.78
77205;BME280;66188;46.626;18.866;2023-01-23T03:55:52;100962.75;;;13.30;45.20
77205;BME280;66188;46.626;18.866;2023-01-23T03:58:17;100962.06;;;13.28;45.82
77205;BME280;66188;46.626;18.866;2023-01-23T04:00:43;100963.75;;;13.29;45.10
77205;BME280;66188;46.626;18.866;2023-01-23T04:03:12;100951.09;;;13.22;44.91
77205;BME280;66188;46.626;18.866;2023-01-23T04:05:37;100966.44;;;13.29;44.96
77205;BME280;66188;46.626;18.866;2023-01-23T04:08:03;100974.72;;;13.26;45.87
77205;BME280;66188;46.626;18.866;2023-01-23T04:10:29;100973.72;;;13.27;45.21
77205;BME280;66188;46.626;18.866;2023-01-23T04:12:54;100972.75;;;13.28;45.49
77205;BME280;66188;46.626;18.866;2023-01-23T04:15:22;100976.41;;;13.27;45.38
77205;BME280;66188;46.626;18.866;2023-01-23T04:17:47;100972.06;;;13.26;45.86
77205;BME280;66188;46.626;18.866;2023-01-23T04:20:19;100962.34;;;13.25;45.34
77205;BME280;66188;46.626;18.866;2023-01-23T04:22:44;100967.56;;;13.27;45.33
77205;BME280;66188;46.626;18.866;2023-01-23T04:25:10;100966.84;;;13.25;45.32
77205;BME280;66188;46.626;18.866;2023-01-23T04:27:36;100961.63;;;13.23;45.03
77205;BME280;66188;46.626;18.866;2023-01-23T04:30:01;100971.34;;;13.24;45.79
77205;BME280;66188;46.626;18.866;2023-01-23T04:32:27;100971.19;;;13.26;45.75
77205;BME280;66188;46.626;18.866;2023-01-23T04:34:56;100973.03;;;13.25;45.14
77205;BME280;66188;46.626;18.866;2023-01-23T04:37:21;100944.63;;;13.15;45.59
77205;BME280;66188;46.626;18.866;2023-01-23T04:39:47;100973.31;;;13.22;45.35
77205;BME280;66188;46.626;18.866;2023-01-23T04:42:15;100969.66;;;13.14;45.37
77205;BME280;66188;46.626;18.866;2023-01-23T04:44:43;100930.13;;;12.89;45.50
77205;BME280;66188;46.626;18.866;2023-01-23T04:47:09;100978.66;;;13.22;45.58
77205;BME280;66188;46.626;18.866;2023-01-23T04:49:34;100987.53;;;13.23;45.88
77205;BME280;66188;46.626;18.866;2023-01-23T04:52:00;100978.66;;;13.13;45.63
77205;BME280;66188;46.626;18.866;2023-01-23T04:54:25;100982.72;;;13.17;45.03
77205;BME280;66188;46.626;18.866;2023-01-23T04:56:51;100987.66;;;13.21;45.92
77205;BME280;66188;46.626;18.866;2023-01-23T04:59:19;100989.66;;;13.19;45.58
77205;BME280;66188;46.626;18.866;2023-01-23T05:01:49;100987.53;;;13.13;45.88
77205;BME280;66188;46.626;18.866;2023-01-23T05:04:14;100986.97;;;13.19;45.58
77205;BME280;66188;46.626;18.866;2023-01-23T05:06:40;100997.50;;;13.21;45.74
77205;BME280;66188;46.626;18.866;2023-01-23T05:09:08;100984.44;;;13.18;45.93
77205;BME280;66188;46.626;18.866;2023-01-23T05:11:34;101007.34;;;13.20;45.28
77205;BME280;66188;46.626;18.866;2023-01-23T05:13:59;100993.13;;;13.20;45.57
77205;BME280;66188;46.626;18.866;2023-01-23T05:16:25;100997.78;;;13.18;45.78
77205;BME280;66188;46.626;18.866;2023-01-23T05:18:50;100990.63;;;13.18;45.70
77205;BME280;66188;46.626;18.866;2023-01-23T05:21:16;100984.31;;;13.19;45.39
77205;BME280;66188;46.626;18.866;2023-01-23T05:23:44;100985.13;;;13.20;45.87
77205;BME280;66188;46.626;18.866;2023-01-23T05:26:09;100988.66;;;13.20;45.81
77205;BME280;66188;46.626;18.866;2023-01-23T05:28:40;100976.41;;;13.18;45.30
77205;BME280;66188;46.626;18.866;2023-01-23T05:31:07;100971.34;;;13.15;45.38
77205;BME280;66188;46.626;18.866;2023-01-23T05:33:35;100982.59;;;13.18;44.80
77205;BME280;66188;46.626;18.866;2023-01-23T05:36:01;100987.94;;;13.18;44.94
77205;BME280;66188;46.626;18.866;2023-01-23T05:38:26;100959.38;;;13.09;45.45
77205;BME280;66188;46.626;18.866;2023-01-23T05:40:52;100980.91;;;13.17;45.32
77205;BME280;66188;46.626;18.866;2023-01-23T05:43:18;100975.56;;;13.17;45.38
77205;BME280;66188;46.626;18.866;2023-01-23T05:45:44;100967.13;;;13.12;45.42
77205;BME280;66188;46.626;18.866;2023-01-23T05:48:12;100975.56;;;13.17;45.38
77205;BME280;66188;46.626;18.866;2023-01-23T05:50:42;100973.03;;;13.16;45.71
77205;BME280;66188;46.626;18.866;2023-01-23T05:53:07;100967.28;;;13.11;46.00
77205;BME280;66188;46.626;18.866;2023-01-23T05:55:33;100947.53;;;13.02;45.66
77205;BME280;66188;46.626;18.866;2023-01-23T05:57:58;100964.88;;;13.17;45.45
77205;BME280;66188;46.626;18.866;2023-01-23T06:00:24;100988.06;;;13.17;45.50
77205;BME280;66188;46.626;18.866;2023-01-23T06:02:50;100987.09;;;13.18;45.57
77205;BME280;66188;46.626;18.866;2023-01-23T06:05:15;100984.56;;;13.16;45.19
77205;BME280;66188;46.626;18.866;2023-01-23T06:07:41;100978.50;;;13.14;45.36
77205;BME280;66188;46.626;18.866;2023-01-23T06:10:09;100987.53;;;13.13;45.48
77205;BME280;66188;46.626;18.866;2023-01-23T06:12:35;100994.53;;;13.14;45.71
77205;BME280;66188;46.626;18.866;2023-01-23T06:15:05;100995.13;;;13.08;45.93
77205;BME280;66188;46.626;18.866;2023-01-23T06:17:33;101015.78;;;13.16;45.15
77205;BME280;66188;46.626;18.866;2023-01-23T06:19:59;101010.28;;;13.17;45.00
77205;BME280;66188;46.626;18.866;2023-01-23T06:22:24;101012.13;;;13.17;45.52
77205;BME280;66188;46.626;18.866;2023-01-23T06:24:50;101008.47;;;13.18;45.17
77205;BME280;66188;46.626;18.866;2023-01-23T06:27:18;101012.84;;;13.19;45.53
77205;BME280;66188;46.626;18.866;2023-01-23T06:29:44;101011.16;;;13.18;44.93
77205;BME280;66188;46.626;18.866;2023-01-23T06:32:09;100999.34;;;13.11;45.51
77205;BME280;66188;46.626;18.866;2023-01-23T06:34:35;100990.16;;;13.04;45.46
77205;BME280;66188;46.626;18.866;2023-01-23T06:37:01;101027.19;;;13.18;44.98
77205;BME280;66188;46.626;18.866;2023-01-23T06:39:27;101011.69;;;13.12;44.81
77205;BME280;66188;46.626;18.866;2023-01-23T06:41:55;101015.78;;;13.16;45.75
77205;BME280;66188;46.626;18.866;2023-01-23T06:44:21;101017.19;;;13.10;45.18
77205;BME280;66188;46.626;18.866;2023-01-23T06:46:46;101026.75;;;13.13;45.11
77205;BME280;66188;46.626;18.866;2023-01-23T06:49:15;101038.28;;;13.13;45.22
77205;BME280;66188;46.626;18.866;2023-01-23T06:51:43;101009.25;;;12.99;45.14
77205;BME280;66188;46.626;18.866;2023-01-23T06:54:13;101035.91;;;13.10;45.04
77205;BME280;66188;46.626;18.866;2023-01-23T06:56:40;101057.13;;;13.12;45.15
77205;BME280;66188;46.626;18.866;2023-01-23T06:59:06;101051.94;;;13.10;45.82
77205;BME280;66188;46.626;18.866;2023-01-23T07:01:31;101060.66;;;13.12;45.57
77205;BME280;66188;46.626;18.866;2023-01-23T07:03:57;101067.69;;;13.13;45.54
77205;BME280;66188;46.626;18.866;2023-01-23T07:06:22;101074.16;;;13.11;45.65
77205;BME280;66188;46.626;18.866;2023-01-23T07:08:51;101065.13;;;13.12;46.01
77205;BME280;66188;46.626;18.866;2023-01-23T07:11:20;101063.00;;;13.06;45.00
77205;BME280;66188;46.626;18.866;2023-01-23T07:13:45;101066.00;;;13.12;44.81
77205;BME280;66188;46.626;18.866;2023-01-23T07:16:11;101067.00;;;13.11;45.24
77205;BME280;66188;46.626;18.866;2023-01-23T07:18:37;101060.78;;;13.11;45.44
77205;BME280;66188;46.626;18.866;2023-01-23T07:21:04;101073.47;;;13.09;44.76
77205;BME280;66188;46.626;18.866;2023-01-23T07:23:30;101067.50;;;13.05;45.00
77205;BME280;66188;46.626;18.866;2023-01-23T07:26:00;101063.59;;;13.09;44.98
77205;BME280;66188;46.626;18.866;2023-01-23T07:28:27;101054.69;;;12.99;45.82
77205;BME280;66188;46.626;18.866;2023-01-23T07:30:53;101064.81;;;13.05;45.11
77205;BME280;66188;46.626;18.866;2023-01-23T07:33:19;101071.75;;;13.08;45.53
77205;BME280;66188;46.626;18.866;2023-01-23T07:35:45;101069.94;;;13.08;45.98
77205;BME280;66188;46.626;18.866;2023-01-23T07:38:10;101073.56;;;13.07;45.23
77205;BME280;66188;46.626;18.866;2023-01-23T07:40:36;101080.88;;;13.05;45.26
77205;BME280;66188;46.626;18.866;2023-01-23T07:43:06;101073.69;;;13.06;45.79
77205;BME280;66188;46.626;18.866;2023-01-23T07:45:31;101066.41;;;13.08;45.92
77205;BME280;66188;46.626;18.866;2023-01-23T07:48:00;101077.94;;;13.08;45.94
77205;BME280;66188;46.626;18.866;2023-01-23T07:50:26;101077.09;;;13.08;45.54
77205;BME280;66188;46.626;18.866;2023-01-23T07:52:51;101081.59;;;13.07;45.95
77205;BME280;66188;46.626;18.866;2023-01-23T07:55:17;101077.94;;;13.08;45.19
77205;BME280;66188;46.626;18.866;2023-01-23T07:57:46;101075.41;;;13.07;45.83
77205;BME280;66188;46.626;18.866;2023-01-23T08:00:12;101086.94;;;13.07;45.51
77205;BME280;66188;46.626;18.866;2023-01-23T08:02:38;101082.59;;;13.06;45.54
77205;BME280;66188;46.626;18.866;2023-01-23T08:05:03;101086.09;;;13.07;45.89
77205;BME280;66188;46.626;18.866;2023-01-23T08:07:29;101075.41;;;13.07;45.67
77205;BME280;66188;46.626;18.866;2023-01-23T08:10:00;101079.91;;;13.06;45.26
77205;BME280;66188;46.626;18.866;2023-01-23T08:12:26;101091.56;;;13.05;45.42
77205;BME280;66188;46.626;18.866;2023-01-23T08:14:52;101086.19;;;13.05;45.34
77205;BME280;66188;46.626;18.866;2023-01-23T08:17:17;101095.19;;;13.04;46.14
77205;BME280;66188;46.626;18.866;2023-01-23T08:19:43;101081.00;;;13.04;45.66
77205;BME280;66188;46.626;18.866;2023-01-23T08:22:08;101086.34;;;13.04;45.83
77205;BME280;66188;46.626;18.866;2023-01-23T08:24:34;101090.84;;;13.03;45.60
77205;BME280;66188;46.626;18.866;2023-01-23T08:27:00;101082.50;;;12.97;45.72
77205;BME280;66188;46.626;18.866;2023-01-23T08:29:25;101081.81;;;12.95;46.18
77205;BME280;66188;46.626;18.866;2023-01-23T08:31:57;101092.81;;;13.01;45.61
77205;BME280;66188;46.626;18.866;2023-01-23T08:34:22;101078.59;;;12.91;46.01
77205;BME280;66188;46.626;18.866;2023-01-23T08:36:49;101088.88;;;13.05;45.62
77205;BME280;66188;46.626;18.866;2023-01-23T08:39:18;101070.84;;;12.98;45.47
77205;BME280;66188;46.626;18.866;2023-01-23T08:41:47;101085.28;;;13.06;45.79
77205;BME280;66188;46.626;18.866;2023-01-23T08:44:12;101083.41;;;13.07;46.10
77205;BME280;66188;46.626;18.866;2023-01-23T08:46:38;101086.81;;;13.09;45.53
77205;BME280;66188;46.626;18.866;2023-01-23T08:49:03;101090.31;;;13.09;45.90
77205;BME280;66188;46.626;18.866;2023-01-23T08:51:29;101095.81;;;13.08;45.66
77205;BME280;66188;46.626;18.866;2023-01-23T08:53:55;101100.31;;;13.07;45.95
77205;BME280;66188;46.626;18.866;2023-01-23T08:56:22;101098.47;;;13.08;45.53
77205;BME280;66188;46.626;18.866;2023-01-23T08:58:49;101090.16;;;13.01;45.28
77205;BME280;66188;46.626;18.866;2023-01-23T09:01:17;101115.09;;;13.11;45.66
77205;BME280;66188;46.626;18.866;2023-01-23T09:03:44;101101.81;;;13.00;45.80
77205;BME280;66188;46.626;18.866;2023-01-23T09:06:14;101115.09;;;13.11;45.94
77205;BME280;66188;46.626;18.866;2023-01-23T09:08:40;101117.88;;;13.10;45.77
77205;BME280;66188;46.626;18.866;2023-01-23T09:11:07;101113.41;;;13.10;45.22
77205;BME280;66188;46.626;18.866;2023-01-23T09:13:33;101119.72;;;13.09;45.74
77205;BME280;66188;46.626;18.866;2023-01-23T09:16:00;101123.94;;;13.12;45.44
77205;BME280;66188;46.626;18.866;2023-01-23T09:18:25;101113.25;;;13.12;46.18
77205;BME280;66188;46.626;18.866;2023-01-23T09:20:52;101114.09;;;13.12;45.35
77205;BME280;66188;46.626;18.866;2023-01-23T09:23:18;101122.13;;;13.12;45.91
77205;BME280;66188;46.626;18.866;2023-01-23T09:25:44;101131.13;;;13.11;46.17
77205;BME280;66188;46.626;18.866;2023-01-23T09:28:10;101125.91;;;13.10;46.46
77205;BME280;66188;46.626;18.866;2023-01-23T09:30:35;101127.72;;;13.09;46.38
77205;BME280;66188;46.626;18.866;2023-01-23T09:33:05;101130.28;;;13.11;45.78
77205;BME280;66188;46.626;18.866;2023-01-23T09:35:30;101124.94;;;13.11;46.43
77205;BME280;66188;46.626;18.866;2023-01-23T09:37:56;101115.22;;;13.10;45.80
77205;BME280;66188;46.626;18.866;2023-01-23T09:40:47;101116.22;;;13.09;46.43
77205;BME280;66188;46.626;18.866;2023-01-23T09:43:19;101104.69;;;13.08;46.60
77205;BME280;66188;46.626;18.866;2023-01-23T09:45:56;101102.97;;;13.07;46.37
77205;BME280;66188;46.626;18.866;2023-01-23T09:48:42;101107.19;;;13.10;46.33
77205;BME280;66188;46.626;18.866;2023-01-23T09:54:00;101116.22;;;13.09;46.22
77205;BME280;66188;46.626;18.866;2023-01-23T09:56:30;101112.69;;;13.08;46.47
77205;BME280;66188;46.626;18.866;2023-01-23T09:59:12;101118.88;;;13.09;46.80
77205;BME280;66188;46.626;18.866;2023-01-23T10:01:39;101089.97;;;12.93;46.37
77205;BME280;66188;46.626;18.866;2023-01-23T10:04:05;101110.03;;;13.08;46.72
77205;BME280;66188;46.626;18.866;2023-01-23T10:12:42;101093.94;;;12.99;46.29
77205;BME280;66188;46.626;18.866;2023-01-23T10:20:23;101101.16;;;13.08;46.63
77205;BME280;66188;46.626;18.866;2023-01-23T10:25:44;101094.84;;;13.09;46.13
77205;BME280;66188;46.626;18.866;2023-01-23T10:30:57;101081.28;;;13.01;46.69
77205;BME280;66188;46.626;18.866;2023-01-23T10:33:39;101084.38;;;13.06;46.74
77205;BME280;66188;46.626;18.866;2023-01-23T10:41:19;101090.47;;;13.08;46.48
77205;BME280;66188;46.626;18.866;2023-01-23T10:43:48;101093.84;;;13.10;47.12
77205;BME280;66188;46.626;18.866;2023-01-23T10:48:49;101101.00;;;13.09;46.67
77205;BME280;66188;46.626;18.866;2023-01-23T10:51:30;101106.34;;;13.09;46.37
77205;BME280;66188;46.626;18.866;2023-01-23T10:54:09;101099.34;;;13.08;46.36
77205;BME280;66188;46.626;18.866;2023-01-23T10:56:48;101107.34;;;13.08;47.21
77205;BME280;66188;46.626;18.866;2023-01-23T10:59:29;101105.66;;;13.07;47.17
77205;BME280;66188;46.626;18.866;2023-01-23T11:02:17;101099.34;;;13.08;46.91
77205;BME280;66188;46.626;18.866;2023-01-23T11:04:46;101103.56;;;13.11;47.12
77205;BME280;66188;46.626;18.866;2023-01-23T11:07:17;101104.53;;;13.10;46.58
77205;BME280;66188;46.626;18.866;2023-01-23T11:09:46;101094.09;;;13.07;47.24
77205;BME280;66188;46.626;18.866;2023-01-23T11:12:18;101092.97;;;13.09;46.67
77205;BME280;66188;46.626;18.866;2023-01-23T11:14:47;101085.81;;;13.10;47.63
77205;BME280;66188;46.626;18.866;2023-01-23T11:17:24;101086.94;;;13.07;47.24
77205;BME280;66188;46.626;18.866;2023-01-23T11:19:57;101084.97;;;13.09;47.50
77205;BME280;66188;46.626;18.866;2023-01-23T11:22:36;101073.25;;;13.01;47.14
77205;BME280;66188;46.626;18.866;2023-01-23T11:25:29;101084.97;;;13.09;46.85
77205;BME280;66188;46.626;18.866;2023-01-23T11:28:01;101061.72;;;13.00;47.11
77205;BME280;66188;46.626;18.866;2023-01-23T11:30:37;101081.59;;;13.07;47.31
77205;BME280;66188;46.626;18.866;2023-01-23T11:42:01;101057.09;;;13.02;47.71
77205;BME280;66188;46.626;18.866;2023-01-23T11:44:31;101045.00;;;12.98;47.41
77205;BME280;66188;46.626;18.866;2023-01-23T11:52:34;101052.91;;;13.09;47.91
77205;BME280;66188;46.626;18.866;2023-01-23T11:58:48;101049.41;;;13.09;47.40
77205;BME280;66188;46.626;18.866;2023-01-23T12:01:30;101059.94;;;13.10;47.13
77205;BME280;66188;46.626;18.866;2023-01-23T12:09:23;101059.09;;;13.10;47.37
77205;BME280;66188;46.626;18.866;2023-01-23T12:15:08;101068.94;;;13.09;47.64
77205;BME280;66188;46.626;18.866;2023-01-23T12:17:48;101056.56;;;13.08;47.67
77205;BME280;66188;46.626;18.866;2023-01-23T12:24:02;101066.41;;;13.08;47.97
77205;BME280;66188;46.626;18.866;2023-01-23T12:26:31;101065.44;;;13.09;48.19
77205;BME280;66188;46.626;18.866;2023-01-23T12:29:35;101054.03;;;13.07;47.07
77205;BME280;66188;46.626;18.866;2023-01-23T12:37:47;101026.13;;;12.90;47.75
77205;BME280;66188;46.626;18.866;2023-01-23T12:43:13;101051.19;;;12.99;48.02
77205;BME280;66188;46.626;18.866;2023-01-23T12:45:56;101066.25;;;13.09;47.83
77205;BME280;66188;46.626;18.866;2023-01-23T12:48:36;101058.41;;;13.08;47.75
77205;BME280;66188;46.626;18.866;2023-01-23T12:51:17;101068.13;;;13.09;48.15
77205;BME280;66188;46.626;18.866;2023-01-23T12:53:51;101051.88;;;13.01;47.61
77205;BME280;66188;46.626;18.866;2023-01-23T12:56:27;101061.91;;;13.08;47.54
77205;BME280;66188;46.626;18.866;2023-01-23T12:59:16;101067.25;;;13.08;47.68
77205;BME280;66188;46.626;18.866;2023-01-23T13:04:45;101071.75;;;13.08;47.58
77205;BME280;66188;46.626;18.866;2023-01-23T13:10:36;101082.28;;;13.09;48.26
77205;BME280;66188;46.626;18.866;2023-01-23T13:13:23;101084.25;;;13.07;47.86
77205;BME280;66188;46.626;18.866;2023-01-23T13:18:27;101075.94;;;13.01;48.49
77205;BME280;66188;46.626;18.866;2023-01-23T13:21:12;101079.78;;;13.08;48.26
77205;BME280;66188;46.626;18.866;2023-01-23T13:27:56;101095.66;;;13.09;47.64
77205;BME280;66188;46.626;18.866;2023-01-23T13:32:59;101098.63;;;13.06;48.13
77205;BME280;66188;46.626;18.866;2023-01-23T13:49:37;101116.44;;;13.06;48.41
77205;BME280;66188;46.626;18.866;2023-01-23T13:52:41;101125.19;;;13.08;48.56
77205;BME280;66188;46.626;18.866;2023-01-23T13:55:29;101129.69;;;13.07;48.29
77205;BME280;66188;46.626;18.866;2023-01-23T13:58:16;101130.53;;;13.08;48.60
77205;BME280;66188;46.626;18.866;2023-01-23T14:01:10;101130.53;;;13.08;48.95
77205;BME280;66188;46.626;18.866;2023-01-23T14:04:05;101118.09;;;12.97;48.95
77205;BME280;66188;46.626;18.866;2023-01-23T14:06:50;101142.19;;;13.07;48.08
77205;BME280;66188;46.626;18.866;2023-01-23T14:09:24;101135.03;;;13.07;47.85
77205;BME280;66188;46.626;18.866;2023-01-23T14:11:58;101144.13;;;13.05;48.40
77205;BME280;66188;46.626;18.866;2023-01-23T14:14:32;101142.19;;;13.07;49.10
77205;BME280;66188;46.626;18.866;2023-01-23T14:17:16;101145.72;;;13.07;48.40
77205;BME280;66188;46.626;18.866;2023-01-23T14:22:17;101152.06;;;13.06;48.68
77205;BME280;66188;46.626;18.866;2023-01-23T14:24:50;101165.44;;;13.06;48.91
77205;BME280;66188;46.626;18.866;2023-01-23T14:27:35;101139.47;;;12.97;49.13
77205;BME280;66188;46.626;18.866;2023-01-23T14:32:34;101160.09;;;13.06;48.74
77205;BME280;66188;46.626;18.866;2023-01-23T14:35:23;101149.63;;;13.03;47.94